sensor_id;sensor_type;location;lat;lon;timestamp;temperature;humidity
10968;DHT22;5536;49.602;10.980;2023-04-23T00:02:26;14.30;99.90
10968;DHT22;5536;49.602;10.980;2023-04-23T00:04:56;14.40;99.90
10968;DHT22;5536;49.602;10.980;2023-04-23T00:07:31;14.30;99.90
10968;DHT22;5536;49.602;10.980;2023-04-23T00:09:59;14.20;99.90
10968;DHT22;5536;49.602;10.980;2023-04-23T00:12:29;14.20;99.90
10968;DHT22;5536;49.602;10.980;2023-04-23T00:14:56;14.10;99.90
10968;DHT22;5536;49.602;10.980;2023-04-23T00:17:23;14.10;99.90
10968;DHT22;5536;49.602;10.980;2023-04-23T00:19:50;14.10;99.90
10968;DHT22;5536;49.602;10.980;2023-04-23T00:22:17;14.20;99.90
10968;DHT22;5536;49.602;10.980;2023-04-23T00:24:46;14.20;99.90
10968;DHT22;5536;49.602;10.980;2023-04-23T00:27:13;14.20;99.90
10968;DHT22;5536;49.602;10.980;2023-04-23T00:29:41;14.30;99.90
10968;DHT22;5536;49.602;10.980;2023-04-23T00:32:08;14.40;99.90
10968;DHT22;5536;49.602;10.980;2023-04-23T00:34:35;14.40;99.90
10968;DHT22;5536;49.602;10.980;2023-04-23T00:37:02;14.40;99.90
10968;DHT22;5536;49.602;10.980;2023-04-23T00:39:31;14.40;99.90
10968;DHT22;5536;49.602;10.980;2023-04-23T00:41:59;14.40;99.90
10968;DHT22;5536;49.602;10.980;2023-04-23T00:44:31;14.40;99.90
10968;DHT22;5536;49.602;10.980;2023-04-23T00:46:59;14.20;99.90
10968;DHT22;5536;49.602;10.980;2023-04-23T00:49:27;14.00;99.90
10968;DHT22;5536;49.602;10.980;2023-04-23T00:51:54;14.00;99.90
10968;DHT22;5536;49.602;10.980;2023-04-23T00:54:21;14.00;99.90
10968;DHT22;5536;49.602;10.980;2023-04-23T00:56:49;13.80;99.90
10968;DHT22;5536;49.602;10.980;2023-04-23T00:59:17;13.70;99.90
10968;DHT22;5536;49.602;10.980;2023-04-23T01:01:45;13.70;99.90
10968;DHT22;5536;49.602;10.980;2023-04-23T01:04:14;13.70;99.90
10968;DHT22;5536;49.602;10.980;2023-04-23T01:06:42;13.90;99.90
10968;DHT22;5536;49.602;10.980;2023-04-23T01:09:09;13.90;99.90
10968;DHT22;5536;49.602;10.980;2023-04-23T01:11:38;14.10;99.90
10968;DHT22;5536;49.602;10.980;2023-04-23T01:14:06;14.10;99.90
10968;DHT22;5536;49.602;10.980;2023-04-23T01:16:36;14.10;99.90
10968;DHT22;5536;49.602;10.980;2023-04-23T01:19:04;14.20;99.90
10968;DHT22;5536;49.602;10.980;2023-04-23T01:21:33;14.00;99.90
10968;DHT22;5536;49.602;10.980;2023-04-23T01:24:02;14.00;99.90
10968;DHT22;5536;49.602;10.980;2023-04-23T01:26:30;13.90;99.90
10968;DHT22;5536;49.602;10.980;2023-04-23T01:28:58;13.90;99.90
10968;DHT22;5536;49.602;10.980;2023-04-23T01:31:26;14.00;99.90
10968;DHT22;5536;49.602;10.980;2023-04-23T01:33:53;14.00;99.90
10968;DHT22;5536;49.602;10.980;2023-04-23T01:36:21;14.00;99.90
10968;DHT22;5536;49.602;10.980;2023-04-23T01:38:49;13.90;99.90
10968;DHT22;5536;49.602;10.980;2023-04-23T01:41:17;13.90;99.90
10968;DHT22;5536;49.602;10.980;2023-04-23T01:43:45;13.90;99.90
10968;DHT22;5536;49.602;10.980;2023-04-23T01:46:12;14.00;99.90
10968;DHT22;5536;49.602;10.980;2023-04-23T01:48:39;14.00;99.90
10968;DHT22;5536;49.602;10.980;2023-04-23T01:51:06;14.00;99.90
10968;DHT22;5536;49.602;10.980;2023-04-23T01:53:34;14.00;99.90
10968;DHT22;5536;49.602;10.980;2023-04-23T01:56:01;14.00;99.90
10968;DHT22;5536;49.602;10.980;2023-04-23T01:58:30;13.90;99.90
10968;DHT22;5536;49.602;10.980;2023-04-23T02:00:57;13.80;99.90
10968;DHT22;5536;49.602;10.980;2023-04-23T02:03:24;13.60;99.90
10968;DHT22;5536;49.602;10.980;2023-04-23T02:05:52;13.50;99.90
10968;DHT22;5536;49.602;10.980;2023-04-23T02:08:20;13.70;99.90
10968;DHT22;5536;49.602;10.980;2023-04-23T02:10:47;13.70;99.90
10968;DHT22;5536;49.602;10.980;2023-04-23T02:13:14;13.80;99.90
10968;DHT22;5536;49.602;10.980;2023-04-23T02:15:42;13.60;99.90
10968;DHT22;5536;49.602;10.980;2023-04-23T02:18:09;13.50;99.90
10968;DHT22;5536;49.602;10.980;2023-04-23T02:20:37;13.50;99.90
10968;DHT22;5536;49.602;10.980;2023-04-23T02:23:06;13.30;99.90
10968;DHT22;5536;49.602;10.980;2023-04-23T02:25:33;13.20;99.90
10968;DHT22;5536;49.602;10.980;2023-04-23T02:28:03;13.20;99.90
10968;DHT22;5536;49.602;10.980;2023-04-23T02:30:31;13.20;99.90
10968;DHT22;5536;49.602;10.980;2023-04-23T02:33:00;13.20;99.90
10968;DHT22;5536;49.602;10.980;2023-04-23T02:35:27;13.20;99.90
10968;DHT22;5536;49.602;10.980;2023-04-23T02:37:54;13.20;99.90
10968;DHT22;5536;49.602;10.980;2023-04-23T02:40:21;13.20;99.90
10968;DHT22;5536;49.602;10.980;2023-04-23T02:42:48;13.20;99.90
10968;DHT22;5536;49.602;10.980;2023-04-23T02:45:15;13.20;99.90
10968;DHT22;5536;49.602;10.980;2023-04-23T02:47:42;13.20;99.90
10968;DHT22;5536;49.602;10.980;2023-04-23T02:50:11;13.10;99.90
10968;DHT22;5536;49.602;10.980;2023-04-23T02:52:38;13.00;99.90
10968;DHT22;5536;49.602;10.980;2023-04-23T02:55:06;13.10;99.90
10968;DHT22;5536;49.602;10.980;2023-04-23T02:57:34;13.00;99.90
10968;DHT22;5536;49.602;10.980;2023-04-23T03:00:01;13.00;99.90
10968;DHT22;5536;49.602;10.980;2023-04-23T03:02:30;13.10;99.90
10968;DHT22;5536;49.602;10.980;2023-04-23T03:04:57;13.10;99.90
10968;DHT22;5536;49.602;10.980;2023-04-23T03:07:25;13.20;99.90
10968;DHT22;5536;49.602;10.980;2023-04-23T03:09:52;13.10;99.90
10968;DHT22;5536;49.602;10.980;2023-04-23T03:12:19;13.10;99.90
10968;DHT22;5536;49.602;10.980;2023-04-23T03:14:46;13.10;99.90
10968;DHT22;5536;49.602;10.980;2023-04-23T03:17:13;13.30;99.90
10968;DHT22;5536;49.602;10.980;2023-04-23T03:19:40;13.30;99.90
10968;DHT22;5536;49.602;10.980;2023-04-23T03:22:07;13.30;99.90
10968;DHT22;5536;49.602;10.980;2023-04-23T03:24:36;13.40;99.90
10968;DHT22;5536;49.602;10.980;2023-04-23T03:27:03;13.50;99.90
10968;DHT22;5536;49.602;10.980;2023-04-23T03:29:30;13.40;88.80
10968;DHT22;5536;49.602;10.980;2023-04-23T03:31:57;13.40;85.60
10968;DHT22;5536;49.602;10.980;2023-04-23T03:34:24;13.40;24.90
10968;DHT22;5536;49.602;10.980;2023-04-23T03:36:51;13.40;1.00
10968;DHT22;5536;49.602;10.980;2023-04-23T03:39:18;13.50;1.00
10968;DHT22;5536;49.602;10.980;2023-04-23T03:41:46;13.50;1.00
10968;DHT22;5536;49.602;10.980;2023-04-23T03:44:14;13.50;1.00
10968;DHT22;5536;49.602;10.980;2023-04-23T03:46:41;13.40;1.00
10968;DHT22;5536;49.602;10.980;2023-04-23T03:49:08;13.40;1.00
10968;DHT22;5536;49.602;10.980;2023-04-23T03:51:35;13.50;1.00
10968;DHT22;5536;49.602;10.980;2023-04-23T03:54:03;13.40;1.00
10968;DHT22;5536;49.602;10.980;2023-04-23T03:56:30;13.40;1.00
10968;DHT22;5536;49.602;10.980;2023-04-23T03:58:58;13.40;15.30
10968;DHT22;5536;49.602;10.980;2023-04-23T04:01:25;13.40;1.00
10968;DHT22;5536;49.602;10.980;2023-04-23T04:03:52;13.40;1.20
10968;DHT22;5536;49.602;10.980;2023-04-23T04:06:19;13.30;18.10
10968;DHT22;5536;49.602;10.980;2023-04-23T04:08:46;13.30;99.90
10968;DHT22;5536;49.602;10.980;2023-04-23T04:11:13;13.30;92.70
10968;DHT22;5536;49.602;10.980;2023-04-23T04:13:41;13.20;99.90
10968;DHT22;5536;49.602;10.980;2023-04-23T04:16:09;13.30;88.80
10968;DHT22;5536;49.602;10.980;2023-04-23T04:18:36;13.20;89.80
10968;DHT22;5536;49.602;10.980;2023-04-23T04:21:04;13.30;99.90
10968;DHT22;5536;49.602;10.980;2023-04-23T04:23:31;13.30;99.90
10968;DHT22;5536;49.602;10.980;2023-04-23T04:25:59;13.30;99.90
10968;DHT22;5536;49.602;10.980;2023-04-23T04:28:26;13.20;99.90
10968;DHT22;5536;49.602;10.980;2023-04-23T04:30:54;13.20;99.90
10968;DHT22;5536;49.602;10.980;2023-04-23T04:33:23;13.10;99.90
10968;DHT22;5536;49.602;10.980;2023-04-23T04:35:50;13.10;99.90
10968;DHT22;5536;49.602;10.980;2023-04-23T04:38:19;13.20;99.90
10968;DHT22;5536;49.602;10.980;2023-04-23T04:40:47;13.20;99.90
10968;DHT22;5536;49.602;10.980;2023-04-23T04:43:15;13.20;99.90
10968;DHT22;5536;49.602;10.980;2023-04-23T04:45:43;13.30;99.90
10968;DHT22;5536;49.602;10.980;2023-04-23T04:48:10;13.30;99.90
10968;DHT22;5536;49.602;10.980;2023-04-23T04:50:38;13.30;99.90
10968;DHT22;5536;49.602;10.980;2023-04-23T04:53:05;13.30;99.90
10968;DHT22;5536;49.602;10.980;2023-04-23T04:55:32;13.40;99.90
10968;DHT22;5536;49.602;10.980;2023-04-23T04:57:59;13.30;99.90
10968;DHT22;5536;49.602;10.980;2023-04-23T05:00:28;13.30;99.90
10968;DHT22;5536;49.602;10.980;2023-04-23T05:02:56;13.30;99.90
10968;DHT22;5536;49.602;10.980;2023-04-23T05:05:24;13.40;99.90
10968;DHT22;5536;49.602;10.980;2023-04-23T05:07:53;13.40;99.90
10968;DHT22;5536;49.602;10.980;2023-04-23T05:10:23;13.40;99.90
10968;DHT22;5536;49.602;10.980;2023-04-23T05:12:51;13.30;99.90
10968;DHT22;5536;49.602;10.980;2023-04-23T05:15:18;13.40;99.90
10968;DHT22;5536;49.602;10.980;2023-04-23T05:17:45;13.50;99.90
10968;DHT22;5536;49.602;10.980;2023-04-23T05:20:12;13.50;99.90
10968;DHT22;5536;49.602;10.980;2023-04-23T05:22:40;13.50;99.90
10968;DHT22;5536;49.602;10.980;2023-04-23T05:25:10;13.50;99.90
10968;DHT22;5536;49.602;10.980;2023-04-23T05:27:38;13.60;94.90
10968;DHT22;5536;49.602;10.980;2023-04-23T05:30:06;13.50;85.10
10968;DHT22;5536;49.602;10.980;2023-04-23T05:32:34;13.50;99.90
10968;DHT22;5536;49.602;10.980;2023-04-23T05:35:02;13.40;99.90
10968;DHT22;5536;49.602;10.980;2023-04-23T05:37:29;13.40;99.90
10968;DHT22;5536;49.602;10.980;2023-04-23T05:39:56;13.40;99.90
10968;DHT22;5536;49.602;10.980;2023-04-23T05:42:25;13.40;99.90
10968;DHT22;5536;49.602;10.980;2023-04-23T05:44:53;13.50;99.90
10968;DHT22;5536;49.602;10.980;2023-04-23T05:47:20;13.50;99.90
10968;DHT22;5536;49.602;10.980;2023-04-23T05:49:47;13.50;99.90
10968;DHT22;5536;49.602;10.980;2023-04-23T05:52:14;13.50;99.90
10968;DHT22;5536;49.602;10.980;2023-04-23T05:54:41;13.40;99.90
10968;DHT22;5536;49.602;10.980;2023-04-23T05:57:08;13.40;99.90
10968;DHT22;5536;49.602;10.980;2023-04-23T05:59:37;13.30;99.90
10968;DHT22;5536;49.602;10.980;2023-04-23T06:02:04;13.30;99.90
10968;DHT22;5536;49.602;10.980;2023-04-23T06:04:31;13.20;99.90
10968;DHT22;5536;49.602;10.980;2023-04-23T06:07:00;13.40;99.90
10968;DHT22;5536;49.602;10.980;2023-04-23T06:09:27;13.50;99.90
10968;DHT22;5536;49.602;10.980;2023-04-23T06:11:54;13.50;99.90
10968;DHT22;5536;49.602;10.980;2023-04-23T06:14:21;13.40;99.90
10968;DHT22;5536;49.602;10.980;2023-04-23T06:16:49;13.50;99.90
10968;DHT22;5536;49.602;10.980;2023-04-23T06:19:16;13.40;99.90
10968;DHT22;5536;49.602;10.980;2023-04-23T06:21:43;13.40;99.90
10968;DHT22;5536;49.602;10.980;2023-04-23T06:24:10;13.50;99.90
10968;DHT22;5536;49.602;10.980;2023-04-23T06:26:37;13.50;99.90
10968;DHT22;5536;49.602;10.980;2023-04-23T06:29:04;13.50;99.90
10968;DHT22;5536;49.602;10.980;2023-04-23T06:31:31;13.60;99.90
10968;DHT22;5536;49.602;10.980;2023-04-23T06:34:00;13.60;68.50
10968;DHT22;5536;49.602;10.980;2023-04-23T06:36:26;13.60;99.40
10968;DHT22;5536;49.602;10.980;2023-04-23T06:38:53;13.50;99.90
10968;DHT22;5536;49.602;10.980;2023-04-23T06:41:21;13.50;99.90
10968;DHT22;5536;49.602;10.980;2023-04-23T06:43:49;13.60;95.00
10968;DHT22;5536;49.602;10.980;2023-04-23T06:46:18;13.60;93.10
10968;DHT22;5536;49.602;10.980;2023-04-23T06:48:45;13.70;63.60
10968;DHT22;5536;49.602;10.980;2023-04-23T06:51:15;13.80;1.00
10968;DHT22;5536;49.602;10.980;2023-04-23T06:53:44;13.90;1.00
10968;DHT22;5536;49.602;10.980;2023-04-23T06:56:11;13.80;1.00
10968;DHT22;5536;49.602;10.980;2023-04-23T06:58:38;13.90;1.00
10968;DHT22;5536;49.602;10.980;2023-04-23T07:01:05;14.00;1.00
10968;DHT22;5536;49.602;10.980;2023-04-23T07:03:33;14.10;1.00
10968;DHT22;5536;49.602;10.980;2023-04-23T07:06:01;14.00;1.00
10968;DHT22;5536;49.602;10.980;2023-04-23T07:08:29;14.10;1.00
10968;DHT22;5536;49.602;10.980;2023-04-23T07:10:56;14.10;1.00
10968;DHT22;5536;49.602;10.980;2023-04-23T07:13:23;14.00;1.00
10968;DHT22;5536;49.602;10.980;2023-04-23T07:15:50;14.00;1.00
10968;DHT22;5536;49.602;10.980;2023-04-23T07:18:18;14.00;1.00
10968;DHT22;5536;49.602;10.980;2023-04-23T07:20:44;13.90;1.00
10968;DHT22;5536;49.602;10.980;2023-04-23T07:23:12;13.80;1.00
10968;DHT22;5536;49.602;10.980;2023-04-23T07:25:40;13.90;1.00
10968;DHT22;5536;49.602;10.980;2023-04-23T07:28:07;13.90;1.00
10968;DHT22;5536;49.602;10.980;2023-04-23T07:30:34;14.00;1.00
10968;DHT22;5536;49.602;10.980;2023-04-23T07:33:01;14.20;1.00
10968;DHT22;5536;49.602;10.980;2023-04-23T07:38:09;14.50;99.90
10968;DHT22;5536;49.602;10.980;2023-04-23T07:43:16;14.60;11.40
10968;DHT22;5536;49.602;10.980;2023-04-23T07:45:43;14.70;99.90
10968;DHT22;5536;49.602;10.980;2023-04-23T07:48:10;14.60;44.10
10968;DHT22;5536;49.602;10.980;2023-04-23T07:50:38;14.60;1.00
10968;DHT22;5536;49.602;10.980;2023-04-23T07:53:05;14.50;99.90
10968;DHT22;5536;49.602;10.980;2023-04-23T07:55:32;14.30;1.00
10968;DHT22;5536;49.602;10.980;2023-04-23T07:57:59;14.10;99.90
10968;DHT22;5536;49.602;10.980;2023-04-23T08:00:27;13.90;1.00
10968;DHT22;5536;49.602;10.980;2023-04-23T08:02:54;13.70;99.00
10968;DHT22;5536;49.602;10.980;2023-04-23T08:05:21;13.80;93.10
10968;DHT22;5536;49.602;10.980;2023-04-23T08:07:48;13.80;79.40
10968;DHT22;5536;49.602;10.980;2023-04-23T08:10:15;13.70;99.90
10968;DHT22;5536;49.602;10.980;2023-04-23T08:12:43;13.50;99.90
10968;DHT22;5536;49.602;10.980;2023-04-23T08:15:10;13.80;99.90
10968;DHT22;5536;49.602;10.980;2023-04-23T08:17:39;13.80;99.90
10968;DHT22;5536;49.602;10.980;2023-04-23T08:20:07;13.80;99.90
10968;DHT22;5536;49.602;10.980;2023-04-23T08:22:34;13.70;99.90
10968;DHT22;5536;49.602;10.980;2023-04-23T08:25:01;13.80;99.90
10968;DHT22;5536;49.602;10.980;2023-04-23T08:27:29;13.90;99.90
10968;DHT22;5536;49.602;10.980;2023-04-23T08:29:56;14.10;99.90
10968;DHT22;5536;49.602;10.980;2023-04-23T08:32:23;14.10;99.90
10968;DHT22;5536;49.602;10.980;2023-04-23T08:34:52;14.10;99.90
10968;DHT22;5536;49.602;10.980;2023-04-23T08:37:19;14.20;99.90
10968;DHT22;5536;49.602;10.980;2023-04-23T08:39:46;14.20;99.90
10968;DHT22;5536;49.602;10.980;2023-04-23T08:42:23;14.30;1.00
10968;DHT22;5536;49.602;10.980;2023-04-23T08:44:53;14.40;1.00
10968;DHT22;5536;49.602;10.980;2023-04-23T08:47:23;14.70;1.00
10968;DHT22;5536;49.602;10.980;2023-04-23T08:49:53;14.80;1.00
10968;DHT22;5536;49.602;10.980;2023-04-23T08:52:24;14.90;1.00
10968;DHT22;5536;49.602;10.980;2023-04-23T08:54:52;14.90;99.90
10968;DHT22;5536;49.602;10.980;2023-04-23T08:57:20;15.00;31.90
10968;DHT22;5536;49.602;10.980;2023-04-23T08:59:47;14.80;99.90
10968;DHT22;5536;49.602;10.980;2023-04-23T09:02:15;14.90;99.90
10968;DHT22;5536;49.602;10.980;2023-04-23T09:04:44;15.00;40.20
10968;DHT22;5536;49.602;10.980;2023-04-23T09:07:13;15.00;99.90
10968;DHT22;5536;49.602;10.980;2023-04-23T09:09:40;15.00;1.00
10968;DHT22;5536;49.602;10.980;2023-04-23T09:12:08;15.00;36.00
10968;DHT22;5536;49.602;10.980;2023-04-23T09:14:35;15.20;99.90
10968;DHT22;5536;49.602;10.980;2023-04-23T09:17:03;15.10;56.80
10968;DHT22;5536;49.602;10.980;2023-04-23T09:19:30;15.00;99.90
10968;DHT22;5536;49.602;10.980;2023-04-23T09:21:58;15.20;99.90
10968;DHT22;5536;49.602;10.980;2023-04-23T09:24:28;15.40;1.00
10968;DHT22;5536;49.602;10.980;2023-04-23T09:26:57;15.40;1.00
10968;DHT22;5536;49.602;10.980;2023-04-23T09:29:24;15.60;1.00
10968;DHT22;5536;49.602;10.980;2023-04-23T09:31:54;15.70;1.00
10968;DHT22;5536;49.602;10.980;2023-04-23T09:34:23;15.90;1.00
10968;DHT22;5536;49.602;10.980;2023-04-23T09:36:51;16.00;1.00
10968;DHT22;5536;49.602;10.980;2023-04-23T09:39:21;15.90;1.00
10968;DHT22;5536;49.602;10.980;2023-04-23T09:41:51;15.70;1.00
10968;DHT22;5536;49.602;10.980;2023-04-23T09:44:19;15.70;1.00
10968;DHT22;5536;49.602;10.980;2023-04-23T09:46:48;15.90;1.00
10968;DHT22;5536;49.602;10.980;2023-04-23T09:49:15;16.10;1.00
10968;DHT22;5536;49.602;10.980;2023-04-23T09:51:43;16.20;99.90
10968;DHT22;5536;49.602;10.980;2023-04-23T09:54:11;16.10;99.90
10968;DHT22;5536;49.602;10.980;2023-04-23T09:56:39;16.00;99.90
10968;DHT22;5536;49.602;10.980;2023-04-23T09:59:23;16.10;1.00
10968;DHT22;5536;49.602;10.980;2023-04-23T10:01:50;16.00;1.00
10968;DHT22;5536;49.602;10.980;2023-04-23T10:04:19;16.10;1.00
10968;DHT22;5536;49.602;10.980;2023-04-23T10:06:47;16.40;1.00
10968;DHT22;5536;49.602;10.980;2023-04-23T10:09:15;16.40;1.00
10968;DHT22;5536;49.602;10.980;2023-04-23T10:11:42;16.60;1.00
10968;DHT22;5536;49.602;10.980;2023-04-23T10:14:09;16.50;99.90
10968;DHT22;5536;49.602;10.980;2023-04-23T10:16:38;16.80;99.90
10968;DHT22;5536;49.602;10.980;2023-04-23T10:19:09;16.90;99.90
10968;DHT22;5536;49.602;10.980;2023-04-23T10:21:40;16.80;1.00
10968;DHT22;5536;49.602;10.980;2023-04-23T10:24:11;16.80;1.00
10968;DHT22;5536;49.602;10.980;2023-04-23T10:26:41;17.00;1.00
10968;DHT22;5536;49.602;10.980;2023-04-23T10:29:13;17.10;1.00
10968;DHT22;5536;49.602;10.980;2023-04-23T10:31:42;17.00;1.00
10968;DHT22;5536;49.602;10.980;2023-04-23T10:34:10;16.80;1.00
10968;DHT22;5536;49.602;10.980;2023-04-23T10:36:37;16.90;1.00
10968;DHT22;5536;49.602;10.980;2023-04-23T10:39:05;16.70;1.00
10968;DHT22;5536;49.602;10.980;2023-04-23T10:41:36;17.00;1.00
10968;DHT22;5536;49.602;10.980;2023-04-23T10:44:04;17.00;1.00
10968;DHT22;5536;49.602;10.980;2023-04-23T10:46:33;17.20;99.90
10968;DHT22;5536;49.602;10.980;2023-04-23T10:49:10;17.40;1.00
10968;DHT22;5536;49.602;10.980;2023-04-23T10:51:39;17.60;99.90
10968;DHT22;5536;49.602;10.980;2023-04-23T10:54:07;17.20;99.90
10968;DHT22;5536;49.602;10.980;2023-04-23T10:56:37;17.10;99.90
10968;DHT22;5536;49.602;10.980;2023-04-23T10:59:06;17.10;1.00
10968;DHT22;5536;49.602;10.980;2023-04-23T11:01:34;17.20;1.00
10968;DHT22;5536;49.602;10.980;2023-04-23T11:04:21;17.40;1.00
10968;DHT22;5536;49.602;10.980;2023-04-23T11:06:56;17.40;1.00
10968;DHT22;5536;49.602;10.980;2023-04-23T11:09:28;17.60;1.00
10968;DHT22;5536;49.602;10.980;2023-04-23T11:11:56;17.50;99.90
10968;DHT22;5536;49.602;10.980;2023-04-23T11:14:40;17.50;99.90
10968;DHT22;5536;49.602;10.980;2023-04-23T11:17:10;17.70;99.90
10968;DHT22;5536;49.602;10.980;2023-04-23T11:19:40;17.60;93.10
10968;DHT22;5536;49.602;10.980;2023-04-23T11:22:14;17.50;99.90
10968;DHT22;5536;49.602;10.980;2023-04-23T11:24:46;17.60;99.90
10968;DHT22;5536;49.602;10.980;2023-04-23T11:27:15;17.90;99.90
10968;DHT22;5536;49.602;10.980;2023-04-23T11:29:44;17.90;99.90
10968;DHT22;5536;49.602;10.980;2023-04-23T11:32:15;18.50;1.00
10968;DHT22;5536;49.602;10.980;2023-04-23T11:34:45;18.90;99.90
10968;DHT22;5536;49.602;10.980;2023-04-23T11:37:13;19.00;24.20
10968;DHT22;5536;49.602;10.980;2023-04-23T11:39:41;18.80;1.00
10968;DHT22;5536;49.602;10.980;2023-04-23T11:42:09;18.60;1.00
10968;DHT22;5536;49.602;10.980;2023-04-23T11:44:38;18.70;1.00
10968;DHT22;5536;49.602;10.980;2023-04-23T11:47:06;18.80;1.00
10968;DHT22;5536;49.602;10.980;2023-04-23T11:49:36;18.80;1.00
10968;DHT22;5536;49.602;10.980;2023-04-23T11:52:05;19.10;1.00
10968;DHT22;5536;49.602;10.980;2023-04-23T11:54:32;19.10;1.00
10968;DHT22;5536;49.602;10.980;2023-04-23T11:57:00;19.20;1.00
10968;DHT22;5536;49.602;10.980;2023-04-23T11:59:29;19.50;1.00
10968;DHT22;5536;49.602;10.980;2023-04-23T12:01:57;18.90;1.00
10968;DHT22;5536;49.602;10.980;2023-04-23T12:04:26;19.00;1.00
10968;DHT22;5536;49.602;10.980;2023-04-23T12:06:55;18.90;99.90
10968;DHT22;5536;49.602;10.980;2023-04-23T12:09:25;18.60;99.90
10968;DHT22;5536;49.602;10.980;2023-04-23T12:11:56;18.80;99.90
10968;DHT22;5536;49.602;10.980;2023-04-23T12:14:27;18.80;99.90
10968;DHT22;5536;49.602;10.980;2023-04-23T12:16:56;18.70;99.90
10968;DHT22;5536;49.602;10.980;2023-04-23T12:19:26;18.70;99.90
10968;DHT22;5536;49.602;10.980;2023-04-23T12:21:55;18.60;99.90
10968;DHT22;5536;49.602;10.980;2023-04-23T12:24:25;19.50;99.90
10968;DHT22;5536;49.602;10.980;2023-04-23T12:26:53;20.70;99.90
10968;DHT22;5536;49.602;10.980;2023-04-23T12:29:21;21.40;99.90
10968;DHT22;5536;49.602;10.980;2023-04-23T12:31:49;21.50;99.90
10968;DHT22;5536;49.602;10.980;2023-04-23T12:34:17;21.10;99.90
10968;DHT22;5536;49.602;10.980;2023-04-23T12:36:46;21.20;99.90
10968;DHT22;5536;49.602;10.980;2023-04-23T12:39:22;21.80;99.90
10968;DHT22;5536;49.602;10.980;2023-04-23T12:41:52;22.00;99.90
10968;DHT22;5536;49.602;10.980;2023-04-23T12:44:20;21.30;99.90
10968;DHT22;5536;49.602;10.980;2023-04-23T12:46:54;20.80;99.90
10968;DHT22;5536;49.602;10.980;2023-04-23T12:49:21;20.60;99.90
10968;DHT22;5536;49.602;10.980;2023-04-23T12:51:48;20.00;99.90
10968;DHT22;5536;49.602;10.980;2023-04-23T12:54:17;19.80;99.90
10968;DHT22;5536;49.602;10.980;2023-04-23T12:56:44;19.90;99.90
10968;DHT22;5536;49.602;10.980;2023-04-23T12:59:13;20.40;99.90
10968;DHT22;5536;49.602;10.980;2023-04-23T13:01:40;20.60;99.90
10968;DHT22;5536;49.602;10.980;2023-04-23T13:04:07;20.80;99.90
10968;DHT22;5536;49.602;10.980;2023-04-23T13:06:35;20.90;99.90
10968;DHT22;5536;49.602;10.980;2023-04-23T13:09:02;20.50;99.90
10968;DHT22;5536;49.602;10.980;2023-04-23T13:11:30;21.50;99.90
10968;DHT22;5536;49.602;10.980;2023-04-23T13:14:00;21.00;99.90
10968;DHT22;5536;49.602;10.980;2023-04-23T13:16:29;20.80;99.90
10968;DHT22;5536;49.602;10.980;2023-04-23T13:18:56;21.70;99.90
10968;DHT22;5536;49.602;10.980;2023-04-23T13:21:25;22.50;99.90
10968;DHT22;5536;49.602;10.980;2023-04-23T13:23:52;22.20;99.90
10968;DHT22;5536;49.602;10.980;2023-04-23T13:26:22;22.20;99.90
10968;DHT22;5536;49.602;10.980;2023-04-23T13:28:50;23.20;99.90
10968;DHT22;5536;49.602;10.980;2023-04-23T13:31:17;23.50;99.90
10968;DHT22;5536;49.602;10.980;2023-04-23T13:33:45;22.00;99.90
10968;DHT22;5536;49.602;10.980;2023-04-23T13:36:12;23.30;99.90
10968;DHT22;5536;49.602;10.980;2023-04-23T13:38:39;23.60;99.90
10968;DHT22;5536;49.602;10.980;2023-04-23T13:41:06;24.00;99.90
10968;DHT22;5536;49.602;10.980;2023-04-23T13:43:34;24.70;99.90
10968;DHT22;5536;49.602;10.980;2023-04-23T13:46:01;24.20;99.90
10968;DHT22;5536;49.602;10.980;2023-04-23T13:48:28;22.20;99.90
10968;DHT22;5536;49.602;10.980;2023-04-23T13:50:58;21.50;99.90
10968;DHT22;5536;49.602;10.980;2023-04-23T13:53:26;20.90;99.90
10968;DHT22;5536;49.602;10.980;2023-04-23T13:55:54;20.00;99.90
10968;DHT22;5536;49.602;10.980;2023-04-23T13:58:21;19.50;99.90
10968;DHT22;5536;49.602;10.980;2023-04-23T14:00:49;19.70;99.90
10968;DHT22;5536;49.602;10.980;2023-04-23T14:03:16;20.80;99.90
10968;DHT22;5536;49.602;10.980;2023-04-23T14:05:44;20.50;99.90
10968;DHT22;5536;49.602;10.980;2023-04-23T14:08:13;20.30;99.90
10968;DHT22;5536;49.602;10.980;2023-04-23T14:10:39;19.90;99.90
10968;DHT22;5536;49.602;10.980;2023-04-23T14:13:06;19.30;99.90
10968;DHT22;5536;49.602;10.980;2023-04-23T14:15:34;19.00;99.90
10968;DHT22;5536;49.602;10.980;2023-04-23T14:18:01;19.00;99.90
10968;DHT22;5536;49.602;10.980;2023-04-23T14:20:28;19.00;99.90
10968;DHT22;5536;49.602;10.980;2023-04-23T14:22:57;19.90;99.90
10968;DHT22;5536;49.602;10.980;2023-04-23T14:25:34;20.70;99.90
10968;DHT22;5536;49.602;10.980;2023-04-23T14:28:05;21.30;99.90
10968;DHT22;5536;49.602;10.980;2023-04-23T14:30:35;22.20;99.90
10968;DHT22;5536;49.602;10.980;2023-04-23T14:33:03;21.90;99.90
10968;DHT22;5536;49.602;10.980;2023-04-23T14:35:30;21.50;99.90
10968;DHT22;5536;49.602;10.980;2023-04-23T14:37:57;21.10;99.90
10968;DHT22;5536;49.602;10.980;2023-04-23T14:40:24;20.80;99.90
10968;DHT22;5536;49.602;10.980;2023-04-23T14:42:53;21.70;99.90
10968;DHT22;5536;49.602;10.980;2023-04-23T14:45:20;22.30;99.90
10968;DHT22;5536;49.602;10.980;2023-04-23T14:47:47;22.90;99.90
10968;DHT22;5536;49.602;10.980;2023-04-23T14:50:15;22.90;99.90
10968;DHT22;5536;49.602;10.980;2023-04-23T14:52:47;22.90;99.90
10968;DHT22;5536;49.602;10.980;2023-04-23T14:55:14;22.40;99.90
10968;DHT22;5536;49.602;10.980;2023-04-23T14:57:42;22.30;99.90
10968;DHT22;5536;49.602;10.980;2023-04-23T15:00:12;21.60;99.90
10968;DHT22;5536;49.602;10.980;2023-04-23T15:02:40;21.60;99.90
10968;DHT22;5536;49.602;10.980;2023-04-23T15:05:10;21.20;99.90
10968;DHT22;5536;49.602;10.980;2023-04-23T15:07:38;22.20;99.90
10968;DHT22;5536;49.602;10.980;2023-04-23T15:10:07;22.50;99.90
10968;DHT22;5536;49.602;10.980;2023-04-23T15:12:52;22.60;99.90
10968;DHT22;5536;49.602;10.980;2023-04-23T15:15:26;23.00;99.90
10968;DHT22;5536;49.602;10.980;2023-04-23T15:18:01;23.40;99.90
10968;DHT22;5536;49.602;10.980;2023-04-23T15:20:28;23.10;99.90
10968;DHT22;5536;49.602;10.980;2023-04-23T15:22:55;22.80;95.70
10968;DHT22;5536;49.602;10.980;2023-04-23T15:25:22;22.30;99.90
10968;DHT22;5536;49.602;10.980;2023-04-23T15:27:50;22.20;99.90
10968;DHT22;5536;49.602;10.980;2023-04-23T15:30:24;22.20;99.90
10968;DHT22;5536;49.602;10.980;2023-04-23T15:32:51;22.20;99.00
10968;DHT22;5536;49.602;10.980;2023-04-23T15:35:20;22.50;95.10
10968;DHT22;5536;49.602;10.980;2023-04-23T15:37:47;22.70;90.50
10968;DHT22;5536;49.602;10.980;2023-04-23T15:40:14;22.00;99.90
10968;DHT22;5536;49.602;10.980;2023-04-23T15:42:42;21.40;99.90
10968;DHT22;5536;49.602;10.980;2023-04-23T15:45:09;21.60;99.90
10968;DHT22;5536;49.602;10.980;2023-04-23T15:47:38;21.90;99.90